Willcox, AZ (85643)

10:36 PM MST on September 01, 2014 (GMT -0700)
14 miles North West of Willcox | Change Station
CLOSE
Current Station
Personal Weather Station
Location: Willcox, AZ
Elevation: 4275 ft
Nearby Weather Stations

Elev 4275 ft 32.38 °N, 109.95 °W | Updated 10 seconds ago

Clear
Clear
61.2 °F
Feels Like 61.2 °F
N
0.0
Wind Variable Wind from NW
Gusts 0.0 mph

Today
High -- | Low -- °F
--% Chance of Precip.
Yesterday
High -- | Low -- °F
Precip. -- in
5:54 AM 6:43 PM
Waxing Crescent, 48% visible
Pressure 29.75 in
Visibility 10.0 miles
Clouds Clear
Dew Point 49 °F
Humidity 64%
Rainfall 0.00 in
Snow Depth Not available.
UV 0 out of 12
Pollen 6.70 out of 12
Air Quality Not available.
Flu Activity Not available.
METAR KSAD 020451Z AUTO 33008KT 10SM CLR 27/02 A2993 RMK AO2 SLP075 T02670017

More Conditions Fewer Conditions

Pressure 29.75 in
Visibility 10.0 miles
Clouds Clear
Dew Point 49 °F
Humidity 64%
Rainfall 0.00 in
Snow Depth Not available.
UV 0 out of 12
Pollen 6.70 out of 12
Air Quality Not available.
Flu Activity Not available.
METAR KSAD 020451Z AUTO 33008KT 10SM CLR 27/02 A2993 RMK AO2 SLP075 T02670017

More Conditions Fewer Conditions

10-Day Weather Forecast

Almanac

Astronomy

Sep. 01, 2014 Rise Set
Actual Time 5:54 AM MST 6:43 PM MST
Civil Twilight 5:29 AM MST 7:08 PM MST
Nautical Twilight 5:00 AM MST 7:38 PM MST
Astronomical Twilight 4:29 AM MST 8:08 PM MST
Moon 12:20 PM MST (9/1) 11:11 PM MST (9/1)
Length of Visible Light 13h 39m
Length of Day
12h 49m
Tomorrow will be 1m 55s shorter.
Waxing Crescent, 48% of the Moon is Illuminated
Sep 2
Waxing Crescent
Sep 2
First Quarter
Sep 8
Full
Sep 15
Last Quarter
Sep 24
New

Yesterday's Extremes

State Highs State Lows

Community

WunderPhotos

Upload Photos

1,749,579 photos uploaded!

WunderBlogs® & News

Nearby

Snow Depth

Station Depth Elevation
Beaver Head 31 in 7990 ft
Coronado Trail 0 in 8400 ft
Maverick Fork 0 in 9200 ft
Workman Creek 1 in 6900 ft
White Horse Lake 0 in 7180 ft

Earthquake Activity

City Distance Mag. Time & Date
No recent earthquake activity has been reported nearby.
Minimum magnitude displayed is 2.5.

Coastal Water Temperatures

Place Temperature
No Stations Reporting

Nearby Weather Stations